Etusivu
METAR-TAF:

METAR-TAF

Lentoasemat :

El Oued, Algeria

Leveyspiiri: 33-30-47N, Pituuspiiri: 006-46-57E, korkeus merenpinnasta: 62 m

Tämänhetkinen sää

Tämä raportti tehtiin 35 minuuttia sitten, kello 15.00 UTC
Tuuli 12 kn pohjoisesta/koillisesta
Lämpötila 23°C
Kosteus 44%
Ilmanpaine 1010 hPa
Näkyvyys 10 km tai enemmän
Muutamia pilviä 3000 ft:n korkeudessa

METAR: DAUO 281500Z 02012KT 9999 FEW030 23/10 Q1010

Aika: 16:35 (15:35 UTC)

Sääennuste

Tämä raportti tehtiin 1 tunti ja 35 minuuttia sitten, kello 14.00 UTC
Ennuste voimassa 28. päivästä klo 15 UTC - 28. päivään klo 24 UTC
Tuuli 12 kn pohjoisesta/koillisesta
Näkyvyys 10 km tai enemmän
Muutamia pilviä 3000 ft:n korkeudessa

TAF: DAUO 281400Z 2815/2824 02012KT 9999 FEW030

Säähavainnot ja -ennusteet yli 4000 lentoasemalta (METAR- ja TAF-raportit).

Käytössä olevat sääasemat on merkitty karttaan keltaisilla ja punaisilla pisteillä.

Aseta hiiri pisteen päälle nähdäksesi sääaseman nimen.

Klikkaa sitten nähdäksesi säähavainnot ja -ennusteet.

Kartan vaihtaminen: klikkaa mustalla rastilla varustettuja vihreitä pisteitä, niin voit zoomata sisään; viivalla varustettua vihreää pistettä, niin voit zoomata ulos tai vihreitä nuolia, niin pääset viereisille kartoille.


METAR-TAF: